New Holland, South Dakota
Current Conditions -  °F | °C
As of 6:53 AM on Monday 22 Dec 2014 (Local Time) from KMHE Reporting Station
Overcast Overcast  
Wind Chill: 29°   Ceiling: 8500
Heat Index: 35°   Visibility: 7mi
Dew Point: 33°   Wind: 7mph
Humidity: 92%   Direction: 260°W
Pressure: 29.45"   Gusts: NA
Location:  43.43°N, 98.61°W
Report Text: KMHE 221253Z AUTO 26006KT 7SM OVC085 02/01 A2945 RMK AO2 SLP981 T00170006
Loading
Personal Weather Stations






























Interactive Weather Map New forecast layout! Learn more

10-Day Weather Forecast

Advertisements
Track Severe Weather on mobile